sensor_id;sensor_type;location;lat;lon;timestamp;P1;durP1;ratioP1;P2;durP2;ratioP2
30934;SDS011;51033;42.648;23.292;2022-07-03T00:00:00;11.35;;;7.43;;
30934;SDS011;51033;42.648;23.292;2022-07-03T00:02:26;10.57;;;6.82;;
30934;SDS011;51033;42.648;23.292;2022-07-03T00:04:51;11.30;;;6.75;;
30934;SDS011;51033;42.648;23.292;2022-07-03T00:07:17;8.38;;;6.55;;
30934;SDS011;51033;42.648;23.292;2022-07-03T00:09:42;7.97;;;6.65;;
30934;SDS011;51033;42.648;23.292;2022-07-03T00:12:08;12.32;;;7.00;;
30934;SDS011;51033;42.648;23.292;2022-07-03T00:14:34;7.95;;;6.72;;
30934;SDS011;51033;42.648;23.292;2022-07-03T00:16:59;8.90;;;6.60;;
30934;SDS011;51033;42.648;23.292;2022-07-03T00:19:25;10.48;;;7.40;;
30934;SDS011;51033;42.648;23.292;2022-07-03T00:21:55;8.13;;;7.22;;
30934;SDS011;51033;42.648;23.292;2022-07-03T00:26:56;7.35;;;6.20;;
30934;SDS011;51033;42.648;23.292;2022-07-03T00:29:23;7.88;;;6.72;;
30934;SDS011;51033;42.648;23.292;2022-07-03T00:31:54;7.18;;;6.45;;
30934;SDS011;51033;42.648;23.292;2022-07-03T00:34:20;9.30;;;6.70;;
30934;SDS011;51033;42.648;23.292;2022-07-03T00:36:50;9.07;;;6.20;;
30934;SDS011;51033;42.648;23.292;2022-07-03T00:39:17;8.10;;;6.78;;
30934;SDS011;51033;42.648;23.292;2022-07-03T00:41:43;8.48;;;6.28;;
30934;SDS011;51033;42.648;23.292;2022-07-03T00:44:10;9.35;;;6.55;;
30934;SDS011;51033;42.648;23.292;2022-07-03T00:46:37;11.35;;;6.68;;
30934;SDS011;51033;42.648;23.292;2022-07-03T00:49:04;10.68;;;6.00;;
30934;SDS011;51033;42.648;23.292;2022-07-03T00:51:33;8.73;;;7.40;;
30934;SDS011;51033;42.648;23.292;2022-07-03T00:53:59;8.95;;;6.28;;
30934;SDS011;51033;42.648;23.292;2022-07-03T00:56:30;8.85;;;6.55;;
30934;SDS011;51033;42.648;23.292;2022-07-03T00:58:58;9.52;;;6.22;;
30934;SDS011;51033;42.648;23.292;2022-07-03T01:01:26;8.13;;;6.60;;
30934;SDS011;51033;42.648;23.292;2022-07-03T01:06:49;9.38;;;7.32;;
30934;SDS011;51033;42.648;23.292;2022-07-03T01:09:17;9.70;;;7.25;;
30934;SDS011;51033;42.648;23.292;2022-07-03T01:12:26;9.23;;;6.85;;
30934;SDS011;51033;42.648;23.292;2022-07-03T01:14:56;8.48;;;7.53;;
30934;SDS011;51033;42.648;23.292;2022-07-03T01:17:31;8.77;;;7.85;;
30934;SDS011;51033;42.648;23.292;2022-07-03T01:20:04;8.77;;;6.00;;
30934;SDS011;51033;42.648;23.292;2022-07-03T01:22:35;7.43;;;6.03;;
30934;SDS011;51033;42.648;23.292;2022-07-03T01:27:56;8.55;;;6.10;;
30934;SDS011;51033;42.648;23.292;2022-07-03T01:30:25;7.18;;;6.30;;
30934;SDS011;51033;42.648;23.292;2022-07-03T01:32:54;7.25;;;6.03;;
30934;SDS011;51033;42.648;23.292;2022-07-03T01:37:57;12.25;;;7.07;;
30934;SDS011;51033;42.648;23.292;2022-07-03T01:40:27;8.57;;;7.00;;
30934;SDS011;51033;42.648;23.292;2022-07-03T01:42:53;7.20;;;5.85;;
30934;SDS011;51033;42.648;23.292;2022-07-03T01:45:19;8.13;;;6.78;;
30934;SDS011;51033;42.648;23.292;2022-07-03T01:47:46;10.93;;;7.00;;
30934;SDS011;51033;42.648;23.292;2022-07-03T01:50:13;8.40;;;6.43;;
30934;SDS011;51033;42.648;23.292;2022-07-03T01:52:41;8.85;;;6.97;;
30934;SDS011;51033;42.648;23.292;2022-07-03T01:55:08;7.78;;;6.18;;
30934;SDS011;51033;42.648;23.292;2022-07-03T01:57:41;9.45;;;6.85;;
30934;SDS011;51033;42.648;23.292;2022-07-03T02:00:12;9.82;;;7.18;;
30934;SDS011;51033;42.648;23.292;2022-07-03T02:02:43;8.30;;;6.78;;
30934;SDS011;51033;42.648;23.292;2022-07-03T02:05:22;8.38;;;7.50;;
30934;SDS011;51033;42.648;23.292;2022-07-03T02:10:30;8.13;;;6.93;;
30934;SDS011;51033;42.648;23.292;2022-07-03T02:13:06;9.02;;;6.90;;
30934;SDS011;51033;42.648;23.292;2022-07-03T02:15:37;7.63;;;6.72;;
30934;SDS011;51033;42.648;23.292;2022-07-03T02:18:11;7.28;;;6.45;;
30934;SDS011;51033;42.648;23.292;2022-07-03T02:23:30;8.20;;;6.80;;
30934;SDS011;51033;42.648;23.292;2022-07-03T02:25:58;7.85;;;6.47;;
30934;SDS011;51033;42.648;23.292;2022-07-03T02:28:40;7.43;;;6.03;;
30934;SDS011;51033;42.648;23.292;2022-07-03T02:31:09;8.98;;;7.28;;
30934;SDS011;51033;42.648;23.292;2022-07-03T02:33:40;7.78;;;6.50;;
30934;SDS011;51033;42.648;23.292;2022-07-03T02:36:06;8.93;;;7.68;;
30934;SDS011;51033;42.648;23.292;2022-07-03T02:38:36;9.45;;;6.78;;
30934;SDS011;51033;42.648;23.292;2022-07-03T02:41:09;7.72;;;6.25;;
30934;SDS011;51033;42.648;23.292;2022-07-03T02:46:14;9.00;;;7.18;;
30934;SDS011;51033;42.648;23.292;2022-07-03T02:52:20;8.77;;;7.85;;
30934;SDS011;51033;42.648;23.292;2022-07-03T02:55:23;11.75;;;7.97;;
30934;SDS011;51033;42.648;23.292;2022-07-03T02:58:13;9.77;;;8.27;;
30934;SDS011;51033;42.648;23.292;2022-07-03T03:00:44;8.40;;;6.47;;
30934;SDS011;51033;42.648;23.292;2022-07-03T03:03:18;9.40;;;6.95;;
30934;SDS011;51033;42.648;23.292;2022-07-03T03:05:49;7.43;;;6.35;;
30934;SDS011;51033;42.648;23.292;2022-07-03T03:08:36;9.30;;;6.45;;
30934;SDS011;51033;42.648;23.292;2022-07-03T03:11:07;7.28;;;6.45;;
30934;SDS011;51033;42.648;23.292;2022-07-03T03:13:34;7.65;;;6.32;;
30934;SDS011;51033;42.648;23.292;2022-07-03T03:16:07;9.10;;;7.10;;
30934;SDS011;51033;42.648;23.292;2022-07-03T03:18:35;8.60;;;6.43;;
30934;SDS011;51033;42.648;23.292;2022-07-03T03:21:06;8.65;;;6.82;;
30934;SDS011;51033;42.648;23.292;2022-07-03T03:26:19;8.18;;;6.93;;
30934;SDS011;51033;42.648;23.292;2022-07-03T03:28:45;8.30;;;6.93;;
30934;SDS011;51033;42.648;23.292;2022-07-03T03:31:10;10.05;;;7.57;;
30934;SDS011;51033;42.648;23.292;2022-07-03T03:33:40;8.07;;;7.07;;
30934;SDS011;51033;42.648;23.292;2022-07-03T03:36:07;9.35;;;6.22;;
30934;SDS011;51033;42.648;23.292;2022-07-03T03:38:34;8.88;;;6.72;;
30934;SDS011;51033;42.648;23.292;2022-07-03T03:41:00;7.53;;;6.57;;
30934;SDS011;51033;42.648;23.292;2022-07-03T03:43:26;8.45;;;6.63;;
30934;SDS011;51033;42.648;23.292;2022-07-03T03:45:51;9.15;;;7.53;;
30934;SDS011;51033;42.648;23.292;2022-07-03T03:48:17;9.70;;;6.82;;
30934;SDS011;51033;42.648;23.292;2022-07-03T03:50:42;7.57;;;6.78;;
30934;SDS011;51033;42.648;23.292;2022-07-03T03:53:09;8.85;;;7.07;;
30934;SDS011;51033;42.648;23.292;2022-07-03T03:55:35;8.18;;;6.93;;
30934;SDS011;51033;42.648;23.292;2022-07-03T03:58:01;8.07;;;7.20;;
30934;SDS011;51033;42.648;23.292;2022-07-03T04:00:27;11.68;;;7.90;;
30934;SDS011;51033;42.648;23.292;2022-07-03T04:02:52;10.82;;;7.55;;
30934;SDS011;51033;42.648;23.292;2022-07-03T04:05:18;9.43;;;8.23;;
30934;SDS011;51033;42.648;23.292;2022-07-03T04:07:43;10.05;;;8.10;;
30934;SDS011;51033;42.648;23.292;2022-07-03T04:10:09;9.60;;;8.13;;
30934;SDS011;51033;42.648;23.292;2022-07-03T04:12:34;10.80;;;8.63;;
30934;SDS011;51033;42.648;23.292;2022-07-03T04:15:00;11.45;;;9.07;;
30934;SDS011;51033;42.648;23.292;2022-07-03T04:17:25;16.83;;;9.65;;
30934;SDS011;51033;42.648;23.292;2022-07-03T04:19:51;9.85;;;8.77;;
30934;SDS011;51033;42.648;23.292;2022-07-03T04:22:16;11.43;;;9.32;;
30934;SDS011;51033;42.648;23.292;2022-07-03T04:24:42;11.38;;;8.77;;
30934;SDS011;51033;42.648;23.292;2022-07-03T04:27:07;11.63;;;9.48;;
30934;SDS011;51033;42.648;23.292;2022-07-03T04:29:33;11.50;;;9.35;;
30934;SDS011;51033;42.648;23.292;2022-07-03T04:31:58;13.38;;;9.75;;
30934;SDS011;51033;42.648;23.292;2022-07-03T04:34:24;12.45;;;9.23;;
30934;SDS011;51033;42.648;23.292;2022-07-03T04:36:49;13.02;;;9.40;;
30934;SDS011;51033;42.648;23.292;2022-07-03T04:39:14;13.98;;;9.10;;
30934;SDS011;51033;42.648;23.292;2022-07-03T04:41:40;15.98;;;8.80;;
30934;SDS011;51033;42.648;23.292;2022-07-03T04:44:05;10.85;;;9.15;;
30934;SDS011;51033;42.648;23.292;2022-07-03T04:46:31;12.35;;;9.50;;
30934;SDS011;51033;42.648;23.292;2022-07-03T04:48:56;12.63;;;8.57;;
30934;SDS011;51033;42.648;23.292;2022-07-03T04:51:23;10.50;;;9.20;;
30934;SDS011;51033;42.648;23.292;2022-07-03T04:53:48;11.00;;;8.25;;
30934;SDS011;51033;42.648;23.292;2022-07-03T04:56:13;10.73;;;8.38;;
30934;SDS011;51033;42.648;23.292;2022-07-03T04:58:39;14.60;;;8.80;;
30934;SDS011;51033;42.648;23.292;2022-07-03T05:01:04;11.57;;;9.13;;
30934;SDS011;51033;42.648;23.292;2022-07-03T05:03:30;11.10;;;8.77;;
30934;SDS011;51033;42.648;23.292;2022-07-03T05:05:55;12.10;;;8.98;;
30934;SDS011;51033;42.648;23.292;2022-07-03T05:08:21;11.93;;;9.73;;
30934;SDS011;51033;42.648;23.292;2022-07-03T05:10:46;10.27;;;8.07;;
30934;SDS011;51033;42.648;23.292;2022-07-03T05:13:11;11.43;;;8.10;;
30934;SDS011;51033;42.648;23.292;2022-07-03T05:15:37;10.30;;;8.65;;
30934;SDS011;51033;42.648;23.292;2022-07-03T05:18:05;9.23;;;8.05;;
30934;SDS011;51033;42.648;23.292;2022-07-03T05:20:30;9.07;;;7.78;;
30934;SDS011;51033;42.648;23.292;2022-07-03T05:22:56;10.73;;;7.53;;
30934;SDS011;51033;42.648;23.292;2022-07-03T05:25:24;9.10;;;7.50;;
30934;SDS011;51033;42.648;23.292;2022-07-03T05:27:50;10.18;;;8.07;;
30934;SDS011;51033;42.648;23.292;2022-07-03T05:30:18;9.80;;;7.70;;
30934;SDS011;51033;42.648;23.292;2022-07-03T05:32:44;9.20;;;7.55;;
30934;SDS011;51033;42.648;23.292;2022-07-03T05:35:09;8.93;;;7.95;;
30934;SDS011;51033;42.648;23.292;2022-07-03T05:37:35;7.72;;;6.93;;
30934;SDS011;51033;42.648;23.292;2022-07-03T05:40:01;7.88;;;6.45;;
30934;SDS011;51033;42.648;23.292;2022-07-03T05:42:28;9.05;;;6.72;;
30934;SDS011;51033;42.648;23.292;2022-07-03T05:44:53;9.05;;;6.95;;
30934;SDS011;51033;42.648;23.292;2022-07-03T05:47:19;9.45;;;6.32;;
30934;SDS011;51033;42.648;23.292;2022-07-03T05:49:44;7.82;;;6.80;;
30934;SDS011;51033;42.648;23.292;2022-07-03T05:52:10;9.38;;;6.80;;
30934;SDS011;51033;42.648;23.292;2022-07-03T05:54:35;9.70;;;7.70;;
30934;SDS011;51033;42.648;23.292;2022-07-03T05:57:01;7.97;;;7.07;;
30934;SDS011;51033;42.648;23.292;2022-07-03T05:59:26;7.88;;;7.05;;
30934;SDS011;51033;42.648;23.292;2022-07-03T06:01:52;11.55;;;7.50;;
30934;SDS011;51033;42.648;23.292;2022-07-03T06:04:17;7.75;;;6.90;;
30934;SDS011;51033;42.648;23.292;2022-07-03T06:06:42;9.80;;;7.82;;
30934;SDS011;51033;42.648;23.292;2022-07-03T06:09:09;8.45;;;7.45;;
30934;SDS011;51033;42.648;23.292;2022-07-03T06:11:34;10.00;;;7.70;;
30934;SDS011;51033;42.648;23.292;2022-07-03T06:14:00;8.82;;;7.53;;
30934;SDS011;51033;42.648;23.292;2022-07-03T06:16:25;8.25;;;6.80;;
30934;SDS011;51033;42.648;23.292;2022-07-03T06:18:50;8.73;;;7.43;;
30934;SDS011;51033;42.648;23.292;2022-07-03T06:21:16;8.20;;;7.15;;
30934;SDS011;51033;42.648;23.292;2022-07-03T06:23:41;10.52;;;7.50;;
30934;SDS011;51033;42.648;23.292;2022-07-03T06:26:07;11.30;;;8.05;;
30934;SDS011;51033;42.648;23.292;2022-07-03T06:28:32;8.82;;;7.28;;
30934;SDS011;51033;42.648;23.292;2022-07-03T06:30:58;8.48;;;7.05;;
30934;SDS011;51033;42.648;23.292;2022-07-03T06:33:23;10.95;;;7.32;;
30934;SDS011;51033;42.648;23.292;2022-07-03T06:35:49;9.60;;;7.32;;
30934;SDS011;51033;42.648;23.292;2022-07-03T06:38:14;8.55;;;7.60;;
30934;SDS011;51033;42.648;23.292;2022-07-03T06:40:40;8.90;;;7.57;;
30934;SDS011;51033;42.648;23.292;2022-07-03T06:43:05;9.55;;;7.72;;
30934;SDS011;51033;42.648;23.292;2022-07-03T06:45:30;8.32;;;7.18;;
30934;SDS011;51033;42.648;23.292;2022-07-03T06:47:56;9.18;;;7.20;;
30934;SDS011;51033;42.648;23.292;2022-07-03T06:50:21;8.90;;;7.97;;
30934;SDS011;51033;42.648;23.292;2022-07-03T06:52:47;8.43;;;6.93;;
30934;SDS011;51033;42.648;23.292;2022-07-03T06:55:12;12.07;;;8.07;;
30934;SDS011;51033;42.648;23.292;2022-07-03T06:57:38;7.80;;;6.97;;
30934;SDS011;51033;42.648;23.292;2022-07-03T07:00:04;8.80;;;7.55;;
30934;SDS011;51033;42.648;23.292;2022-07-03T07:02:32;9.73;;;7.45;;
30934;SDS011;51033;42.648;23.292;2022-07-03T07:04:58;8.88;;;7.07;;
30934;SDS011;51033;42.648;23.292;2022-07-03T07:07:23;9.82;;;7.30;;
30934;SDS011;51033;42.648;23.292;2022-07-03T07:09:49;9.13;;;7.40;;
30934;SDS011;51033;42.648;23.292;2022-07-03T07:12:14;9.02;;;7.65;;
30934;SDS011;51033;42.648;23.292;2022-07-03T07:14:40;10.23;;;7.18;;
30934;SDS011;51033;42.648;23.292;2022-07-03T07:17:06;9.10;;;7.88;;
30934;SDS011;51033;42.648;23.292;2022-07-03T07:19:31;9.02;;;7.03;;
30934;SDS011;51033;42.648;23.292;2022-07-03T07:21:57;13.27;;;9.32;;
30934;SDS011;51033;42.648;23.292;2022-07-03T07:24:22;8.35;;;7.43;;
30934;SDS011;51033;42.648;23.292;2022-07-03T07:26:47;7.78;;;6.90;;
30934;SDS011;51033;42.648;23.292;2022-07-03T07:29:13;17.20;;;8.82;;
30934;SDS011;51033;42.648;23.292;2022-07-03T07:31:38;8.80;;;7.15;;
30934;SDS011;51033;42.648;23.292;2022-07-03T07:34:04;14.38;;;8.80;;
30934;SDS011;51033;42.648;23.292;2022-07-03T07:36:30;9.40;;;7.97;;
30934;SDS011;51033;42.648;23.292;2022-07-03T07:38:57;9.88;;;7.85;;
30934;SDS011;51033;42.648;23.292;2022-07-03T07:41:22;8.95;;;7.18;;
30934;SDS011;51033;42.648;23.292;2022-07-03T07:43:48;8.57;;;7.47;;
30934;SDS011;51033;42.648;23.292;2022-07-03T07:46:13;10.57;;;6.82;;
30934;SDS011;51033;42.648;23.292;2022-07-03T07:48:38;8.52;;;6.45;;
30934;SDS011;51033;42.648;23.292;2022-07-03T07:51:04;8.30;;;7.03;;
30934;SDS011;51033;42.648;23.292;2022-07-03T07:53:29;10.57;;;7.68;;
30934;SDS011;51033;42.648;23.292;2022-07-03T07:55:55;8.48;;;7.45;;
30934;SDS011;51033;42.648;23.292;2022-07-03T07:58:20;8.70;;;7.43;;
30934;SDS011;51033;42.648;23.292;2022-07-03T08:00:47;15.38;;;10.18;;
30934;SDS011;51033;42.648;23.292;2022-07-03T08:03:31;11.07;;;8.18;;
30934;SDS011;51033;42.648;23.292;2022-07-03T08:06:15;8.75;;;7.72;;
30934;SDS011;51033;42.648;23.292;2022-07-03T08:08:40;10.02;;;7.82;;
30934;SDS011;51033;42.648;23.292;2022-07-03T08:11:06;11.30;;;7.20;;
30934;SDS011;51033;42.648;23.292;2022-07-03T08:13:31;9.82;;;7.85;;
30934;SDS011;51033;42.648;23.292;2022-07-03T08:15:57;9.23;;;7.13;;
30934;SDS011;51033;42.648;23.292;2022-07-03T08:18:22;10.95;;;7.35;;
30934;SDS011;51033;42.648;23.292;2022-07-03T08:20:48;8.38;;;6.70;;
30934;SDS011;51033;42.648;23.292;2022-07-03T08:23:14;7.85;;;6.43;;
30934;SDS011;51033;42.648;23.292;2022-07-03T08:25:39;7.50;;;6.40;;
30934;SDS011;51033;42.648;23.292;2022-07-03T08:28:04;13.75;;;12.30;;
30934;SDS011;51033;42.648;23.292;2022-07-03T08:30:30;8.27;;;7.00;;
30934;SDS011;51033;42.648;23.292;2022-07-03T08:32:57;8.63;;;7.00;;
30934;SDS011;51033;42.648;23.292;2022-07-03T08:35:23;6.70;;;6.03;;
30934;SDS011;51033;42.648;23.292;2022-07-03T08:37:49;13.18;;;7.00;;
30934;SDS011;51033;42.648;23.292;2022-07-03T08:40:15;8.15;;;7.10;;
30934;SDS011;51033;42.648;23.292;2022-07-03T08:42:42;6.97;;;6.28;;
30934;SDS011;51033;42.648;23.292;2022-07-03T08:45:15;7.68;;;5.72;;
30934;SDS011;51033;42.648;23.292;2022-07-03T08:47:42;6.53;;;5.80;;
30934;SDS011;51033;42.648;23.292;2022-07-03T08:50:14;10.73;;;6.35;;
30934;SDS011;51033;42.648;23.292;2022-07-03T08:52:42;6.75;;;5.97;;
30934;SDS011;51033;42.648;23.292;2022-07-03T08:55:09;8.52;;;5.93;;
30934;SDS011;51033;42.648;23.292;2022-07-03T08:57:37;6.82;;;6.13;;
30934;SDS011;51033;42.648;23.292;2022-07-03T09:00:04;10.18;;;7.10;;
30934;SDS011;51033;42.648;23.292;2022-07-03T09:02:31;6.90;;;5.47;;
30934;SDS011;51033;42.648;23.292;2022-07-03T09:04:58;6.75;;;5.22;;
30934;SDS011;51033;42.648;23.292;2022-07-03T09:07:25;8.55;;;5.70;;
30934;SDS011;51033;42.648;23.292;2022-07-03T09:09:52;8.13;;;5.40;;
30934;SDS011;51033;42.648;23.292;2022-07-03T09:12:18;7.00;;;5.38;;
30934;SDS011;51033;42.648;23.292;2022-07-03T09:14:44;7.68;;;5.50;;
30934;SDS011;51033;42.648;23.292;2022-07-03T09:17:10;6.18;;;5.55;;
30934;SDS011;51033;42.648;23.292;2022-07-03T09:19:39;7.05;;;5.00;;
30934;SDS011;51033;42.648;23.292;2022-07-03T09:22:19;5.50;;;5.00;;
30934;SDS011;51033;42.648;23.292;2022-07-03T09:24:46;6.85;;;4.80;;
30934;SDS011;51033;42.648;23.292;2022-07-03T09:27:15;4.57;;;4.13;;
30934;SDS011;51033;42.648;23.292;2022-07-03T09:29:56;6.63;;;4.72;;
30934;SDS011;51033;42.648;23.292;2022-07-03T09:32:23;5.40;;;4.82;;
30934;SDS011;51033;42.648;23.292;2022-07-03T09:34:48;5.40;;;4.90;;
30934;SDS011;51033;42.648;23.292;2022-07-03T09:37:14;5.07;;;4.57;;
30934;SDS011;51033;42.648;23.292;2022-07-03T09:39:55;5.80;;;4.63;;
30934;SDS011;51033;42.648;23.292;2022-07-03T09:42:22;11.77;;;5.10;;
30934;SDS011;51033;42.648;23.292;2022-07-03T09:44:47;5.18;;;4.30;;
30934;SDS011;51033;42.648;23.292;2022-07-03T09:47:14;4.38;;;3.97;;
30934;SDS011;51033;42.648;23.292;2022-07-03T09:49:44;4.57;;;4.13;;
30934;SDS011;51033;42.648;23.292;2022-07-03T09:52:40;4.50;;;4.05;;
30934;SDS011;51033;42.648;23.292;2022-07-03T09:57:31;5.70;;;3.85;;
30934;SDS011;51033;42.648;23.292;2022-07-03T10:02:57;3.80;;;3.40;;
30934;SDS011;51033;42.648;23.292;2022-07-03T10:08:08;3.50;;;3.20;;
30934;SDS011;51033;42.648;23.292;2022-07-03T10:10:47;4.07;;;3.15;;
30934;SDS011;51033;42.648;23.292;2022-07-03T10:13:14;4.20;;;3.22;;
30934;SDS011;51033;42.648;23.292;2022-07-03T10:15:41;3.20;;;2.90;;
30934;SDS011;51033;42.648;23.292;2022-07-03T10:18:09;4.07;;;3.67;;
30934;SDS011;51033;42.648;23.292;2022-07-03T10:20:38;3.15;;;2.60;;
30934;SDS011;51033;42.648;23.292;2022-07-03T10:23:05;4.13;;;3.63;;
30934;SDS011;51033;42.648;23.292;2022-07-03T10:25:31;3.88;;;2.95;;
30934;SDS011;51033;42.648;23.292;2022-07-03T10:27:57;3.15;;;2.63;;
30934;SDS011;51033;42.648;23.292;2022-07-03T10:30:25;4.20;;;2.70;;
30934;SDS011;51033;42.648;23.292;2022-07-03T10:32:53;2.50;;;2.30;;
30934;SDS011;51033;42.648;23.292;2022-07-03T10:35:25;3.90;;;2.38;;
30934;SDS011;51033;42.648;23.292;2022-07-03T10:40:40;6.07;;;2.60;;
30934;SDS011;51033;42.648;23.292;2022-07-03T10:43:26;4.45;;;3.08;;
30934;SDS011;51033;42.648;23.292;2022-07-03T10:46:17;2.67;;;2.47;;
30934;SDS011;51033;42.648;23.292;2022-07-03T10:48:55;3.38;;;2.63;;
30934;SDS011;51033;42.648;23.292;2022-07-03T10:51:25;3.13;;;2.60;;
30934;SDS011;51033;42.648;23.292;2022-07-03T10:54:11;5.35;;;2.60;;
30934;SDS011;51033;42.648;23.292;2022-07-03T11:02:16;2.78;;;2.45;;
30934;SDS011;51033;42.648;23.292;2022-07-03T11:07:32;3.25;;;2.70;;
30934;SDS011;51033;42.648;23.292;2022-07-03T11:15:24;2.87;;;2.57;;
30934;SDS011;51033;42.648;23.292;2022-07-03T11:20:37;3.00;;;2.35;;
30934;SDS011;51033;42.648;23.292;2022-07-03T11:25:52;2.83;;;2.50;;
30934;SDS011;51033;42.648;23.292;2022-07-03T11:36:27;3.53;;;2.90;;
30934;SDS011;51033;42.648;23.292;2022-07-03T11:41:19;4.32;;;2.92;;
30934;SDS011;51033;42.648;23.292;2022-07-03T11:43:48;3.67;;;2.88;;
30934;SDS011;51033;42.648;23.292;2022-07-03T11:46:22;6.18;;;3.30;;
30934;SDS011;51033;42.648;23.292;2022-07-03T11:48:50;3.17;;;2.72;;
30934;SDS011;51033;42.648;23.292;2022-07-03T11:51:28;6.85;;;3.60;;
30934;SDS011;51033;42.648;23.292;2022-07-03T11:53:54;3.75;;;3.38;;
30934;SDS011;51033;42.648;23.292;2022-07-03T11:56:19;3.45;;;3.13;;
30934;SDS011;51033;42.648;23.292;2022-07-03T11:58:45;3.85;;;2.92;;
30934;SDS011;51033;42.648;23.292;2022-07-03T12:03:47;4.78;;;2.90;;
30934;SDS011;51033;42.648;23.292;2022-07-03T12:06:13;3.70;;;3.00;;
30934;SDS011;51033;42.648;23.292;2022-07-03T12:08:38;4.25;;;3.20;;
30934;SDS011;51033;42.648;23.292;2022-07-03T12:11:11;3.85;;;3.33;;
30934;SDS011;51033;42.648;23.292;2022-07-03T12:13:38;5.15;;;3.50;;
30934;SDS011;51033;42.648;23.292;2022-07-03T12:16:13;4.13;;;3.67;;
30934;SDS011;51033;42.648;23.292;2022-07-03T12:18:52;5.15;;;3.67;;
30934;SDS011;51033;42.648;23.292;2022-07-03T12:21:19;4.57;;;3.58;;
30934;SDS011;51033;42.648;23.292;2022-07-03T12:28:59;8.82;;;6.75;;
30934;SDS011;51033;42.648;23.292;2022-07-03T12:31:26;4.70;;;3.83;;
30934;SDS011;51033;42.648;23.292;2022-07-03T12:33:53;3.85;;;3.10;;
30934;SDS011;51033;42.648;23.292;2022-07-03T12:36:19;4.10;;;3.28;;
30934;SDS011;51033;42.648;23.292;2022-07-03T12:38:48;6.38;;;3.55;;
30934;SDS011;51033;42.648;23.292;2022-07-03T12:41:13;3.90;;;3.50;;
30934;SDS011;51033;42.648;23.292;2022-07-03T12:43:41;4.43;;;3.85;;
30934;SDS011;51033;42.648;23.292;2022-07-03T12:48:47;4.88;;;3.75;;
30934;SDS011;51033;42.648;23.292;2022-07-03T12:51:14;5.85;;;4.22;;
30934;SDS011;51033;42.648;23.292;2022-07-03T12:53:41;5.00;;;3.50;;
30934;SDS011;51033;42.648;23.292;2022-07-03T12:56:07;5.28;;;4.38;;
30934;SDS011;51033;42.648;23.292;2022-07-03T12:58:35;5.20;;;3.83;;
30934;SDS011;51033;42.648;23.292;2022-07-03T13:01:38;4.53;;;3.65;;
30934;SDS011;51033;42.648;23.292;2022-07-03T13:04:04;4.07;;;3.67;;
30934;SDS011;51033;42.648;23.292;2022-07-03T13:06:31;4.75;;;4.22;;
30934;SDS011;51033;42.648;23.292;2022-07-03T13:08:57;4.50;;;3.10;;
30934;SDS011;51033;42.648;23.292;2022-07-03T13:11:43;5.38;;;3.58;;
30934;SDS011;51033;42.648;23.292;2022-07-03T13:16:45;4.20;;;3.80;;
30934;SDS011;51033;42.648;23.292;2022-07-03T13:19:11;4.28;;;3.88;;
30934;SDS011;51033;42.648;23.292;2022-07-03T13:21:44;3.90;;;3.50;;
30934;SDS011;51033;42.648;23.292;2022-07-03T13:24:10;5.60;;;3.75;;
30934;SDS011;51033;42.648;23.292;2022-07-03T13:26:36;4.07;;;3.47;;
30934;SDS011;51033;42.648;23.292;2022-07-03T13:29:03;5.30;;;3.95;;
30934;SDS011;51033;42.648;23.292;2022-07-03T13:31:29;4.35;;;3.95;;
30934;SDS011;51033;42.648;23.292;2022-07-03T13:33:55;6.65;;;3.47;;
30934;SDS011;51033;42.648;23.292;2022-07-03T13:36:26;8.60;;;4.05;;
30934;SDS011;51033;42.648;23.292;2022-07-03T13:38:52;4.07;;;3.67;;
30934;SDS011;51033;42.648;23.292;2022-07-03T13:41:18;4.55;;;3.85;;
30934;SDS011;51033;42.648;23.292;2022-07-03T13:43:46;6.40;;;3.35;;
30934;SDS011;51033;42.648;23.292;2022-07-03T13:46:12;4.97;;;3.35;;
30934;SDS011;51033;42.648;23.292;2022-07-03T13:48:37;4.00;;;3.60;;
30934;SDS011;51033;42.648;23.292;2022-07-03T13:51:02;4.57;;;4.18;;
30934;SDS011;51033;42.648;23.292;2022-07-03T13:53:28;5.80;;;4.03;;
30934;SDS011;51033;42.648;23.292;2022-07-03T13:55:55;5.55;;;3.85;;
30934;SDS011;51033;42.648;23.292;2022-07-03T13:58:22;4.22;;;3.83;;
30934;SDS011;51033;42.648;23.292;2022-07-03T14:00:47;3.70;;;3.40;;
30934;SDS011;51033;42.648;23.292;2022-07-03T14:03:13;3.97;;;3.63;;
30934;SDS011;51033;42.648;23.292;2022-07-03T14:05:38;4.90;;;3.85;;
30934;SDS011;51033;42.648;23.292;2022-07-03T14:08:04;4.00;;;3.60;;
30934;SDS011;51033;42.648;23.292;2022-07-03T14:10:29;4.75;;;3.33;;
30934;SDS011;51033;42.648;23.292;2022-07-03T14:12:55;4.90;;;4.50;;
30934;SDS011;51033;42.648;23.292;2022-07-03T14:15:20;4.53;;;4.03;;
30934;SDS011;51033;42.648;23.292;2022-07-03T14:17:45;4.47;;;4.07;;
30934;SDS011;51033;42.648;23.292;2022-07-03T14:20:11;5.30;;;4.80;;
30934;SDS011;51033;42.648;23.292;2022-07-03T14:22:37;4.30;;;3.90;;
30934;SDS011;51033;42.648;23.292;2022-07-03T14:25:03;4.57;;;3.92;;
30934;SDS011;51033;42.648;23.292;2022-07-03T14:27:29;4.68;;;4.03;;
30934;SDS011;51033;42.648;23.292;2022-07-03T14:30:13;6.93;;;4.63;;
30934;SDS011;51033;42.648;23.292;2022-07-03T14:32:57;4.28;;;3.88;;
30934;SDS011;51033;42.648;23.292;2022-07-03T14:35:22;5.57;;;4.85;;
30934;SDS011;51033;42.648;23.292;2022-07-03T14:37:48;4.90;;;3.95;;
30934;SDS011;51033;42.648;23.292;2022-07-03T14:40:14;4.68;;;4.28;;
30934;SDS011;51033;42.648;23.292;2022-07-03T14:42:39;5.95;;;4.57;;
30934;SDS011;51033;42.648;23.292;2022-07-03T14:45:06;5.07;;;4.45;;
30934;SDS011;51033;42.648;23.292;2022-07-03T14:47:32;6.05;;;4.55;;
30934;SDS011;51033;42.648;23.292;2022-07-03T14:49:58;4.47;;;4.07;;
30934;SDS011;51033;42.648;23.292;2022-07-03T14:52:23;5.30;;;4.22;;
30934;SDS011;51033;42.648;23.292;2022-07-03T14:54:49;6.97;;;5.20;;
30934;SDS011;51033;42.648;23.292;2022-07-03T14:57:24;5.20;;;4.70;;
30934;SDS011;51033;42.648;23.292;2022-07-03T15:05:21;4.97;;;3.80;;
30934;SDS011;51033;42.648;23.292;2022-07-03T15:10:29;5.35;;;4.35;;
30934;SDS011;51033;42.648;23.292;2022-07-03T15:12:58;5.43;;;4.20;;
30934;SDS011;51033;42.648;23.292;2022-07-03T15:15:25;5.95;;;4.35;;
30934;SDS011;51033;42.648;23.292;2022-07-03T15:17:51;5.05;;;4.28;;
30934;SDS011;51033;42.648;23.292;2022-07-03T15:20:18;4.43;;;4.03;;
30934;SDS011;51033;42.648;23.292;2022-07-03T15:22:45;4.80;;;4.40;;
30934;SDS011;51033;42.648;23.292;2022-07-03T15:25:12;4.53;;;4.13;;
30934;SDS011;51033;42.648;23.292;2022-07-03T15:27:41;5.10;;;4.38;;
30934;SDS011;51033;42.648;23.292;2022-07-03T15:30:07;4.72;;;4.22;;
30934;SDS011;51033;42.648;23.292;2022-07-03T15:32:35;5.40;;;4.22;;
30934;SDS011;51033;42.648;23.292;2022-07-03T15:35:01;5.15;;;4.70;;
30934;SDS011;51033;42.648;23.292;2022-07-03T15:40:25;5.85;;;4.18;;
30934;SDS011;51033;42.648;23.292;2022-07-03T15:49:06;5.13;;;4.28;;
30934;SDS011;51033;42.648;23.292;2022-07-03T15:57:04;4.72;;;4.20;;
30934;SDS011;51033;42.648;23.292;2022-07-03T15:59:31;5.93;;;4.43;;
30934;SDS011;51033;42.648;23.292;2022-07-03T16:02:01;5.45;;;4.32;;
30934;SDS011;51033;42.648;23.292;2022-07-03T16:04:46;5.22;;;4.70;;
30934;SDS011;51033;42.648;23.292;2022-07-03T16:07:24;3.85;;;3.55;;
30934;SDS011;51033;42.648;23.292;2022-07-03T16:09:52;6.20;;;4.45;;
30934;SDS011;51033;42.648;23.292;2022-07-03T16:12:18;4.60;;;4.20;;
30934;SDS011;51033;42.648;23.292;2022-07-03T16:14:47;8.05;;;5.00;;
30934;SDS011;51033;42.648;23.292;2022-07-03T16:17:17;7.70;;;4.10;;